Time;durP1;ratioP1;P1;durP2;ratioP2;P2;SDS_P1;SDS_P2;PMS_P1;PMS_P2;Temp;Humidity;BMP_temperature;BMP_pressure;BME280_temperature;BME280_humidity;BME280_pressure;Samples;Min_cycle;Max_cycle;Signal;HPM_P1;HPM_P2
2024/04/24 00:00:49;;;;;;;5.17;1.30;;;;;;;;;;5469775;26;20239;-71
2024/04/24 00:03:17;;;;;;;4.20;1.10;;;;;;;;;;5516326;25;20235;-71
2024/04/24 00:05:42;;;;;;;6.23;1.70;;;;;;;;;;5504389;25;20830;-72
2024/04/24 00:08:08;;;;;;;6.50;1.33;;;;;;;;;;5519124;25;20302;-71
2024/04/24 00:10:33;;;;;;;5.40;1.10;;;;;;;;;;5521015;25;20316;-71
2024/04/24 00:12:59;;;;;;;6.67;1.17;;;;;;;;;;5522996;25;20728;-71
2024/04/24 00:15:24;;;;;;;9.60;1.87;;;;;;;;;;5505783;25;20324;-71
2024/04/24 00:17:50;;;;;;;10.80;1.30;;;;;;;;;;5513257;25;20373;-71
2024/04/24 00:20:15;;;;;;;4.77;0.87;;;;;;;;;;5518315;26;20700;-71
2024/04/24 00:22:40;;;;;;;7.60;1.10;;;;;;;;;;5524567;25;20783;-71
2024/04/24 00:25:06;;;;;;;4.97;0.80;;;;;;;;;;5528663;25;21241;-71
2024/04/24 00:27:31;;;;;;;6.53;1.10;;;;;;;;;;5537639;25;20235;-71
2024/04/24 00:29:57;;;;;;;4.60;1.00;;;;;;;;;;5524954;25;20585;-70
2024/04/24 00:32:22;;;;;;;6.87;1.20;;;;;;;;;;5519669;26;20977;-70
2024/04/24 00:34:47;;;;;;;4.90;1.23;;;;;;;;;;5517601;25;20318;-71
2024/04/24 00:37:13;;;;;;;7.30;1.17;;;;;;;;;;5521696;25;20659;-72
2024/04/24 00:39:38;;;;;;;2.90;1.20;;;;;;;;;;5490225;26;20326;-73
2024/04/24 00:42:04;;;;;;;4.70;1.17;;;;;;;;;;5520412;25;20247;-72
2024/04/24 00:44:29;;;;;;;7.77;1.20;;;;;;;;;;5517974;25;20252;-71
2024/04/24 00:46:57;;;;;;;7.67;1.40;;;;;;;;;;5522387;25;20244;-71
2024/04/24 00:49:25;;;;;;;6.90;1.50;;;;;;;;;;5524622;25;20243;-71
2024/04/24 00:51:50;;;;;;;6.57;1.10;;;;;;;;;;5519839;25;20244;-72
2024/04/24 00:54:16;;;;;;;6.80;1.30;;;;;;;;;;5521000;25;20283;-72
2024/04/24 00:56:42;;;;;;;3.77;1.40;;;;;;;;;;5516564;25;20326;-71
2024/04/24 00:59:08;;;;;;;5.53;1.23;;;;;;;;;;5524685;25;20566;-70
2024/04/24 01:01:33;;;;;;;6.07;1.10;;;;;;;;;;5521816;25;20236;-71
2024/04/24 01:03:59;;;;;;;6.83;1.40;;;;;;;;;;5522059;25;20363;-71
2024/04/24 01:06:24;;;;;;;8.93;1.80;;;;;;;;;;5517098;25;20235;-71
2024/04/24 01:08:50;;;;;;;16.30;2.27;;;;;;;;;;5524742;25;20240;-71
2024/04/24 01:11:15;;;;;;;5.30;1.00;;;;;;;;;;5491975;25;20244;-71
2024/04/24 01:13:41;;;;;;;5.13;0.97;;;;;;;;;;5513467;25;20353;-71
2024/04/24 01:16:16;;;;;;;8.03;1.60;;;;;;;;;;5518916;25;20235;-70
2024/04/24 01:18:53;;;;;;;6.33;1.37;;;;;;;;;;5521713;25;20307;-70
2024/04/24 01:21:19;;;;;;;7.37;1.67;;;;;;;;;;5532718;25;21056;-71
2024/04/24 01:24:08;;;;;;;5.97;1.57;;;;;;;;;;5521589;25;20239;-71
2024/04/24 01:26:47;;;;;;;4.13;0.97;;;;;;;;;;5519742;25;20887;-70
2024/04/24 01:29:13;;;;;;;8.97;1.67;;;;;;;;;;5550286;25;20858;-70
2024/04/24 01:31:39;;;;;;;8.30;1.30;;;;;;;;;;5518477;25;20323;-71
2024/04/24 01:34:05;;;;;;;4.70;1.07;;;;;;;;;;5520762;25;20296;-70
2024/04/24 01:36:30;;;;;;;6.47;1.47;;;;;;;;;;5521020;25;20239;-71
2024/04/24 01:38:55;;;;;;;7.50;1.40;;;;;;;;;;5522042;25;20699;-72
2024/04/24 01:41:21;;;;;;;10.97;1.30;;;;;;;;;;5518247;26;20236;-71
2024/04/24 01:43:46;;;;;;;6.43;1.40;;;;;;;;;;5521933;25;20231;-73
2024/04/24 01:46:12;;;;;;;5.43;1.40;;;;;;;;;;5519404;26;20239;-70
2024/04/24 01:48:37;;;;;;;7.00;1.23;;;;;;;;;;5521014;25;20267;-71
2024/04/24 01:51:03;;;;;;;6.87;1.20;;;;;;;;;;5526069;25;20232;-70
2024/04/24 01:53:29;;;;;;;7.90;0.90;;;;;;;;;;5520428;25;20235;-70
2024/04/24 01:55:54;;;;;;;3.13;1.07;;;;;;;;;;5503225;25;20780;-72
2024/04/24 01:58:20;;;;;;;6.63;1.13;;;;;;;;;;5519612;25;20556;-71
2024/04/24 02:00:45;;;;;;;8.23;1.07;;;;;;;;;;5520748;25;20239;-71
2024/04/24 02:03:11;;;;;;;6.43;1.10;;;;;;;;;;5520790;25;20232;-72
2024/04/24 02:05:36;;;;;;;6.00;0.93;;;;;;;;;;5520442;25;20711;-71
2024/04/24 02:08:02;;;;;;;4.30;0.80;;;;;;;;;;5515089;25;20231;-72
2024/04/24 02:10:27;;;;;;;2.53;0.90;;;;;;;;;;5518033;25;20388;-71
2024/04/24 02:12:52;;;;;;;4.78;1.00;;;;;;;;;;5520332;25;21732;-72
2024/04/24 02:15:18;;;;;;;6.07;1.00;;;;;;;;;;5516965;26;20334;-73
2024/04/24 02:17:43;;;;;;;6.27;1.00;;;;;;;;;;5517137;25;20328;-70
2024/04/24 02:20:09;;;;;;;7.40;1.07;;;;;;;;;;5517596;25;20278;-71
2024/04/24 02:22:34;;;;;;;3.67;1.00;;;;;;;;;;5514684;26;20299;-71
2024/04/24 02:27:44;;;;;;;6.53;0.97;;;;;;;;;;5523225;25;20278;-71
2024/04/24 02:30:09;;;;;;;8.33;1.40;;;;;;;;;;5519366;25;20585;-72
2024/04/24 02:32:35;;;;;;;5.40;1.17;;;;;;;;;;5519718;25;20243;-71
2024/04/24 02:35:00;;;;;;;6.77;0.97;;;;;;;;;;5515700;25;20714;-71
2024/04/24 02:37:26;;;;;;;3.63;0.90;;;;;;;;;;5520593;25;20295;-72
2024/04/24 02:39:52;;;;;;;4.43;0.97;;;;;;;;;;5519808;25;20247;-72
2024/04/24 02:42:17;;;;;;;9.90;1.60;;;;;;;;;;5486794;26;20277;-71
2024/04/24 02:44:43;;;;;;;3.87;1.33;;;;;;;;;;5517645;26;20334;-73
2024/04/24 02:47:08;;;;;;;7.70;1.10;;;;;;;;;;5518312;25;20383;-71
2024/04/24 02:49:34;;;;;;;7.63;1.03;;;;;;;;;;5519916;25;20282;-72
2024/04/24 02:51:59;;;;;;;9.53;1.00;;;;;;;;;;5524360;25;20353;-73
2024/04/24 02:54:24;;;;;;;7.90;1.07;;;;;;;;;;5530437;25;20281;-71
2024/04/24 02:56:50;;;;;;;9.13;1.33;;;;;;;;;;5517245;26;20670;-71
2024/04/24 02:59:15;;;;;;;8.90;1.20;;;;;;;;;;5486662;25;21032;-71
2024/04/24 03:01:41;;;;;;;11.60;1.10;;;;;;;;;;5518789;25;20278;-72
2024/04/24 03:04:06;;;;;;;4.43;0.90;;;;;;;;;;5524920;25;20331;-71
2024/04/24 03:06:32;;;;;;;7.07;1.23;;;;;;;;;;5519479;25;20347;-71
2024/04/24 03:08:57;;;;;;;7.23;1.63;;;;;;;;;;5517046;25;20254;-71
2024/04/24 03:11:23;;;;;;;5.20;1.40;;;;;;;;;;5519374;25;20236;-72
2024/04/24 03:13:48;;;;;;;6.60;1.23;;;;;;;;;;5534350;25;20236;-71
2024/04/24 03:16:13;;;;;;;8.77;1.20;;;;;;;;;;5519496;25;20282;-71
2024/04/24 03:18:42;;;;;;;4.53;1.10;;;;;;;;;;5521262;25;20657;-71
2024/04/24 03:21:07;;;;;;;6.10;1.20;;;;;;;;;;5508817;25;20268;-71
2024/04/24 03:23:33;;;;;;;3.93;1.17;;;;;;;;;;5491309;25;20291;-72
2024/04/24 03:25:58;;;;;;;6.63;0.90;;;;;;;;;;5498764;26;20243;-72
2024/04/24 03:28:23;;;;;;;7.23;1.07;;;;;;;;;;5518984;25;20239;-71
2024/04/24 03:30:49;;;;;;;11.53;1.20;;;;;;;;;;5515676;26;20267;-71
2024/04/24 03:33:14;;;;;;;4.10;0.87;;;;;;;;;;5521041;25;20246;-72
2024/04/24 03:35:40;;;;;;;5.27;0.83;;;;;;;;;;5521037;25;20267;-73
2024/04/24 03:38:05;;;;;;;5.57;1.00;;;;;;;;;;5517997;25;20243;-72
2024/04/24 03:40:30;;;;;;;8.37;1.43;;;;;;;;;;5504479;25;20240;-72
2024/04/24 03:42:56;;;;;;;5.73;0.97;;;;;;;;;;5521728;25;20278;-74
2024/04/24 03:45:21;;;;;;;6.23;1.30;;;;;;;;;;5522079;25;20303;-71
2024/04/24 03:47:47;;;;;;;6.70;1.00;;;;;;;;;;5514943;25;20275;-71
2024/04/24 03:50:13;;;;;;;4.87;0.97;;;;;;;;;;5521905;25;20247;-71
2024/04/24 03:52:39;;;;;;;7.73;1.03;;;;;;;;;;5525217;25;20231;-71
2024/04/24 03:55:04;;;;;;;4.27;1.10;;;;;;;;;;5532262;25;20243;-71
2024/04/24 03:57:30;;;;;;;5.83;1.00;;;;;;;;;;5522322;25;20607;-71
2024/04/24 03:59:56;;;;;;;7.57;0.97;;;;;;;;;;5519627;25;20328;-71
2024/04/24 04:02:21;;;;;;;5.70;1.10;;;;;;;;;;5521550;25;20285;-71
2024/04/24 04:04:46;;;;;;;7.30;1.07;;;;;;;;;;5524262;25;20278;-71
2024/04/24 04:07:12;;;;;;;4.13;0.90;;;;;;;;;;5521762;25;20275;-70
2024/04/24 04:09:37;;;;;;;4.60;1.10;;;;;;;;;;5521368;25;20534;-70
2024/04/24 04:12:06;;;;;;;9.93;1.10;;;;;;;;;;5509130;25;20335;-72
2024/04/24 04:14:33;;;;;;;9.63;1.30;;;;;;;;;;5513170;25;20228;-71
2024/04/24 04:16:59;;;;;;;3.67;0.80;;;;;;;;;;5520372;25;20271;-71
2024/04/24 04:19:24;;;;;;;5.63;1.00;;;;;;;;;;5548200;25;20681;-72
2024/04/24 04:21:51;;;;;;;11.70;1.23;;;;;;;;;;5474607;25;20243;-71
2024/04/24 04:24:16;;;;;;;2.80;0.97;;;;;;;;;;5510364;25;20291;-75
2024/04/24 04:26:41;;;;;;;5.20;1.07;;;;;;;;;;5497706;25;20331;-73
2024/04/24 04:29:07;;;;;;;9.40;1.13;;;;;;;;;;5499253;25;20629;-72
2024/04/24 04:31:32;;;;;;;7.53;1.00;;;;;;;;;;5513303;25;20912;-72
2024/04/24 04:33:58;;;;;;;7.53;1.10;;;;;;;;;;5505772;25;20278;-71
2024/04/24 04:36:23;;;;;;;10.33;1.33;;;;;;;;;;5512451;25;20239;-72
2024/04/24 04:38:49;;;;;;;3.27;1.10;;;;;;;;;;5510859;25;20235;-72
2024/04/24 04:41:14;;;;;;;12.90;1.80;;;;;;;;;;5502239;25;20274;-71
2024/04/24 04:43:39;;;;;;;8.43;1.60;;;;;;;;;;5519068;25;20277;-71
2024/04/24 04:46:05;;;;;;;8.10;1.60;;;;;;;;;;5520301;25;20290;-71
2024/04/24 04:48:30;;;;;;;7.37;1.50;;;;;;;;;;5506734;25;20362;-71
2024/04/24 04:50:56;;;;;;;6.03;1.30;;;;;;;;;;5501345;25;20292;-71
2024/04/24 04:53:21;;;;;;;9.83;2.03;;;;;;;;;;5515931;25;20243;-71
2024/04/24 04:55:47;;;;;;;7.97;1.30;;;;;;;;;;5508872;25;20376;-73
2024/04/24 04:58:12;;;;;;;7.60;1.30;;;;;;;;;;5495936;25;20248;-73
2024/04/24 05:00:37;;;;;;;7.10;1.23;;;;;;;;;;5510301;25;20296;-74
2024/04/24 05:03:03;;;;;;;5.83;1.20;;;;;;;;;;5506509;25;20282;-73
2024/04/24 05:05:29;;;;;;;9.67;1.53;;;;;;;;;;5508741;26;20287;-72
2024/04/24 05:07:54;;;;;;;5.60;1.00;;;;;;;;;;5497756;25;20236;-74
2024/04/24 05:10:19;;;;;;;8.67;1.60;;;;;;;;;;5517076;25;20337;-72
2024/04/24 05:12:45;;;;;;;5.93;1.00;;;;;;;;;;5517938;25;20585;-73
2024/04/24 05:15:10;;;;;;;8.87;1.30;;;;;;;;;;5517138;25;20270;-76
2024/04/24 05:17:36;;;;;;;9.47;1.50;;;;;;;;;;5483746;25;20299;-76
2024/04/24 05:20:01;;;;;;;6.67;1.27;;;;;;;;;;5512329;25;20251;-77
2024/04/24 05:22:33;;;;;;;13.03;2.00;;;;;;;;;;5506145;25;20365;-76
2024/04/24 05:24:59;;;;;;;12.10;1.43;;;;;;;;;;5507089;25;20228;-76
2024/04/24 05:30:08;;;;;;;11.97;1.20;;;;;;;;;;5537671;25;20244;-77
2024/04/24 05:32:34;;;;;;;9.23;1.47;;;;;;;;;;5517867;25;20232;-75
2024/04/24 05:34:59;;;;;;;9.77;1.50;;;;;;;;;;5480112;25;20328;-76
2024/04/24 05:37:25;;;;;;;10.03;1.00;;;;;;;;;;5521326;25;20227;-76
2024/04/24 05:39:51;;;;;;;7.70;1.40;;;;;;;;;;5486917;26;20235;-76
2024/04/24 05:42:16;;;;;;;6.23;1.30;;;;;;;;;;5518449;25;20365;-75
2024/04/24 05:44:42;;;;;;;11.33;1.30;;;;;;;;;;5485050;25;20251;-74
2024/04/24 05:47:07;;;;;;;6.07;1.00;;;;;;;;;;5508449;25;20247;-74
2024/04/24 05:49:33;;;;;;;5.57;1.07;;;;;;;;;;5516504;25;20239;-74
2024/04/24 05:51:58;;;;;;;4.83;1.20;;;;;;;;;;5518848;25;20236;-77
2024/04/24 05:54:24;;;;;;;7.87;2.57;;;;;;;;;;5516123;25;20228;-75
2024/04/24 05:56:49;;;;;;;3.13;0.80;;;;;;;;;;5515769;25;20227;-75
2024/04/24 05:59:15;;;;;;;5.57;1.07;;;;;;;;;;5485086;26;20592;-75
2024/04/24 06:01:40;;;;;;;7.70;0.90;;;;;;;;;;5517748;25;20312;-75
2024/04/24 06:04:06;;;;;;;8.03;1.13;;;;;;;;;;5520798;25;20334;-74
2024/04/24 06:06:31;;;;;;;8.10;1.13;;;;;;;;;;5529785;25;20232;-75
2024/04/24 06:08:56;;;;;;;4.30;1.10;;;;;;;;;;5519321;25;20287;-75
2024/04/24 06:11:22;;;;;;;5.07;1.13;;;;;;;;;;5515248;25;20824;-75
2024/04/24 06:13:47;;;;;;;6.47;1.27;;;;;;;;;;5486824;25;20374;-74
2024/04/24 06:16:13;;;;;;;6.50;1.33;;;;;;;;;;5528856;25;20353;-76
2024/04/24 06:18:38;;;;;;;8.50;1.37;;;;;;;;;;5483398;25;20749;-75
2024/04/24 06:21:04;;;;;;;6.27;1.30;;;;;;;;;;5478043;26;20770;-76
2024/04/24 06:23:29;;;;;;;10.23;1.57;;;;;;;;;;5519604;25;20340;-76
2024/04/24 06:25:55;;;;;;;8.43;1.70;;;;;;;;;;5516153;25;20291;-75
2024/04/24 06:28:20;;;;;;;8.10;1.60;;;;;;;;;;5516001;25;20386;-75
2024/04/24 06:30:46;;;;;;;8.67;1.43;;;;;;;;;;5514242;25;20279;-76
2024/04/24 06:33:11;;;;;;;10.77;1.47;;;;;;;;;;5517397;25;20255;-75
2024/04/24 06:35:37;;;;;;;13.13;1.63;;;;;;;;;;5519675;25;20691;-75
2024/04/24 06:38:02;;;;;;;7.00;1.43;;;;;;;;;;5505614;25;20767;-75
2024/04/24 06:40:28;;;;;;;9.17;1.50;;;;;;;;;;5500766;25;20235;-74
2024/04/24 06:42:53;;;;;;;11.17;1.30;;;;;;;;;;5516587;25;20290;-74
2024/04/24 06:45:19;;;;;;;7.53;1.40;;;;;;;;;;5519018;25;20678;-74
2024/04/24 06:47:44;;;;;;;10.13;1.10;;;;;;;;;;5530751;25;20269;-74
2024/04/24 06:50:09;;;;;;;9.97;1.47;;;;;;;;;;5511477;25;20274;-75
2024/04/24 06:52:35;;;;;;;8.60;1.83;;;;;;;;;;5511724;25;20555;-75
2024/04/24 06:55:01;;;;;;;12.63;2.60;;;;;;;;;;5510244;25;20244;-74
2024/04/24 06:57:27;;;;;;;11.93;1.43;;;;;;;;;;5523836;25;20348;-74
2024/04/24 06:59:52;;;;;;;8.63;1.50;;;;;;;;;;5514485;25;20235;-74
2024/04/24 07:02:18;;;;;;;7.27;1.80;;;;;;;;;;5482984;26;20668;-74
2024/04/24 07:04:43;;;;;;;10.23;1.60;;;;;;;;;;5506963;25;20343;-75
2024/04/24 07:07:09;;;;;;;11.97;2.17;;;;;;;;;;5503855;25;20703;-76
2024/04/24 07:09:34;;;;;;;11.53;1.50;;;;;;;;;;5479242;26;20735;-75
2024/04/24 07:11:59;;;;;;;11.85;1.98;;;;;;;;;;5512015;25;20269;-74
2024/04/24 07:14:25;;;;;;;12.77;1.63;;;;;;;;;;5518878;25;20367;-74
2024/04/24 07:16:50;;;;;;;9.70;2.50;;;;;;;;;;5521413;25;20327;-76
2024/04/24 07:19:16;;;;;;;19.77;2.63;;;;;;;;;;5500763;25;20287;-73
2024/04/24 07:21:41;;;;;;;11.40;1.93;;;;;;;;;;5509113;25;20629;-73
2024/04/24 07:24:07;;;;;;;17.37;2.43;;;;;;;;;;5516983;25;20235;-74
2024/04/24 07:26:32;;;;;;;11.73;1.90;;;;;;;;;;5517873;25;20711;-73
2024/04/24 07:28:58;;;;;;;11.23;2.00;;;;;;;;;;5519561;25;20227;-74
2024/04/24 07:31:23;;;;;;;8.83;2.10;;;;;;;;;;5518866;25;20712;-74
2024/04/24 07:33:48;;;;;;;12.67;1.90;;;;;;;;;;5516204;26;20236;-73
2024/04/24 07:36:14;;;;;;;8.70;1.47;;;;;;;;;;5505875;26;20356;-77
2024/04/24 07:38:39;;;;;;;5.97;1.27;;;;;;;;;;5512509;25;20719;-73
2024/04/24 07:41:05;;;;;;;5.57;1.37;;;;;;;;;;5511750;25;20283;-73
2024/04/24 07:43:34;;;;;;;14.27;1.88;;;;;;;;;;5517172;25;20265;-73
2024/04/24 07:46:04;;;;;;;9.10;1.88;;;;;;;;;;5515989;25;20312;-73
2024/04/24 07:48:29;;;;;;;9.10;1.40;;;;;;;;;;5526858;25;20611;-73
2024/04/24 07:50:55;;;;;;;5.97;1.40;;;;;;;;;;5514834;25;20248;-74
2024/04/24 07:53:20;;;;;;;7.70;1.25;;;;;;;;;;5518319;25;20235;-73
2024/04/24 07:55:45;;;;;;;3.92;0.95;;;;;;;;;;5528150;25;20302;-75
2024/04/24 07:58:11;;;;;;;6.55;1.00;;;;;;;;;;5517403;25;20264;-72
2024/04/24 08:00:37;;;;;;;8.00;1.40;;;;;;;;;;5518151;25;20224;-73
2024/04/24 08:03:02;;;;;;;9.52;1.08;;;;;;;;;;5520079;25;20240;-73
2024/04/24 08:05:28;;;;;;;3.63;1.20;;;;;;;;;;5532570;25;20539;-74
2024/04/24 08:07:53;;;;;;;6.05;1.08;;;;;;;;;;5512736;25;20334;-73
2024/04/24 08:10:19;;;;;;;2.58;0.90;;;;;;;;;;5518839;25;20767;-73
2024/04/24 08:12:44;;;;;;;3.95;0.88;;;;;;;;;;5514011;25;20244;-73
2024/04/24 08:15:10;;;;;;;4.15;0.90;;;;;;;;;;5512608;25;20331;-73
2024/04/24 08:17:35;;;;;;;4.57;0.70;;;;;;;;;;5501138;25;20364;-73
2024/04/24 08:20:02;;;;;;;4.50;0.80;;;;;;;;;;5515325;25;20722;-74
2024/04/24 08:22:28;;;;;;;5.88;0.70;;;;;;;;;;5517307;26;20795;-73
2024/04/24 08:24:53;;;;;;;7.15;1.77;;;;;;;;;;5510832;25;20239;-72
2024/04/24 08:27:19;;;;;;;3.80;0.85;;;;;;;;;;5521778;25;20266;-72
2024/04/24 08:29:44;;;;;;;2.28;0.75;;;;;;;;;;5520330;25;20240;-73
2024/04/24 08:32:09;;;;;;;1.95;0.68;;;;;;;;;;5521959;25;20531;-74
2024/04/24 08:34:35;;;;;;;5.40;1.25;;;;;;;;;;5517743;26;20236;-74
2024/04/24 08:37:01;;;;;;;5.13;1.00;;;;;;;;;;5514468;26;20274;-73
2024/04/24 08:39:27;;;;;;;6.28;1.42;;;;;;;;;;5519256;25;20240;-73
2024/04/24 08:41:53;;;;;;;4.07;1.40;;;;;;;;;;5521369;25;20247;-73
2024/04/24 08:44:20;;;;;;;4.72;1.15;;;;;;;;;;5509289;25;20283;-73
2024/04/24 08:46:46;;;;;;;5.22;0.95;;;;;;;;;;5525418;25;20267;-74
2024/04/24 08:49:11;;;;;;;3.47;1.02;;;;;;;;;;5542783;25;20260;-73
2024/04/24 08:51:39;;;;;;;4.05;0.80;;;;;;;;;;5517636;25;20285;-71
2024/04/24 08:54:09;;;;;;;2.25;0.80;;;;;;;;;;5488042;25;20247;-73
2024/04/24 08:56:43;;;;;;;5.45;0.90;;;;;;;;;;5525761;25;20252;-72
2024/04/24 08:59:20;;;;;;;4.35;0.90;;;;;;;;;;5483802;26;20565;-73
2024/04/24 09:01:53;;;;;;;2.25;0.70;;;;;;;;;;5532898;25;20235;-72
2024/04/24 09:04:20;;;;;;;3.42;0.73;;;;;;;;;;5509820;25;20581;-72
2024/04/24 09:06:45;;;;;;;1.83;0.75;;;;;;;;;;5521451;25;20235;-73
2024/04/24 09:09:11;;;;;;;4.47;0.90;;;;;;;;;;5502405;26;20282;-73
2024/04/24 09:11:37;;;;;;;1.63;0.73;;;;;;;;;;5505182;25;20645;-73
2024/04/24 09:14:04;;;;;;;4.55;0.80;;;;;;;;;;5471673;26;20259;-72
2024/04/24 09:16:34;;;;;;;4.18;1.00;;;;;;;;;;5479623;26;20266;-73
2024/04/24 09:19:03;;;;;;;2.60;0.70;;;;;;;;;;5476190;26;20266;-73
2024/04/24 09:21:30;;;;;;;2.63;0.57;;;;;;;;;;5520669;25;20322;-73
2024/04/24 09:23:56;;;;;;;5.07;1.23;;;;;;;;;;5483117;25;20270;-73
2024/04/24 09:26:21;;;;;;;2.63;1.00;;;;;;;;;;5496370;25;20311;-74
2024/04/24 09:28:47;;;;;;;6.20;1.52;;;;;;;;;;5509634;25;20235;-74
2024/04/24 09:31:12;;;;;;;3.75;0.80;;;;;;;;;;5519682;25;20276;-73
2024/04/24 09:33:39;;;;;;;2.03;0.60;;;;;;;;;;5519640;25;20243;-73
2024/04/24 09:36:05;;;;;;;1.98;0.60;;;;;;;;;;5485107;26;20320;-69
2024/04/24 09:38:30;;;;;;;2.45;0.70;;;;;;;;;;5508075;25;20299;-74
2024/04/24 09:41:00;;;;;;;2.85;0.60;;;;;;;;;;5499277;25;20236;-73
2024/04/24 09:43:30;;;;;;;1.92;0.50;;;;;;;;;;5509398;25;20275;-72
2024/04/24 09:45:56;;;;;;;2.78;1.10;;;;;;;;;;5512238;25;20240;-72
2024/04/24 09:48:22;;;;;;;2.90;0.40;;;;;;;;;;5517603;25;20247;-72
2024/04/24 09:50:49;;;;;;;2.53;0.55;;;;;;;;;;5517331;25;20410;-73
2024/04/24 09:53:19;;;;;;;2.65;0.80;;;;;;;;;;5520951;25;20331;-77
2024/04/24 09:56:10;;;;;;;1.73;0.50;;;;;;;;;;5519586;25;20286;-75
2024/04/24 09:58:39;;;;;;;2.70;0.60;;;;;;;;;;5502878;26;20253;-75
2024/04/24 10:01:08;;;;;;;2.55;0.45;;;;;;;;;;5470652;25;20244;-77
2024/04/24 10:03:35;;;;;;;0.65;0.22;;;;;;;;;;5505597;25;20320;-77
2024/04/24 10:06:02;;;;;;;2.83;0.50;;;;;;;;;;5517796;25;20247;-75
2024/04/24 10:08:35;;;;;;;2.42;0.50;;;;;;;;;;5518955;25;20750;-77
2024/04/24 10:11:02;;;;;;;2.05;0.40;;;;;;;;;;5519506;25;20333;-76
2024/04/24 10:13:38;;;;;;;1.48;0.22;;;;;;;;;;5515260;25;20785;-73
2024/04/24 10:16:04;;;;;;;0.57;0.22;;;;;;;;;;5486659;26;20281;-74
2024/04/24 10:18:32;;;;;;;1.45;0.10;;;;;;;;;;5522093;25;20317;-76
2024/04/24 10:20:58;;;;;;;0.65;0.17;;;;;;;;;;5502414;25;20682;-76
2024/04/24 10:23:26;;;;;;;1.02;0.20;;;;;;;;;;5514195;25;20251;-74
2024/04/24 10:25:52;;;;;;;1.60;0.40;;;;;;;;;;5507262;25;20244;-75
2024/04/24 10:28:20;;;;;;;5.82;0.25;;;;;;;;;;5521993;25;20304;-74
2024/04/24 10:30:47;;;;;;;2.35;0.52;;;;;;;;;;5502285;25;20232;-74
2024/04/24 10:33:13;;;;;;;1.23;0.38;;;;;;;;;;5517549;25;20266;-74
2024/04/24 10:35:39;;;;;;;2.80;0.45;;;;;;;;;;5516548;25;20231;-72
2024/04/24 10:38:06;;;;;;;3.42;0.57;;;;;;;;;;5508491;25;20248;-74
2024/04/24 10:40:31;;;;;;;3.92;0.80;;;;;;;;;;5500540;26;20248;-75
2024/04/24 10:42:59;;;;;;;2.80;0.50;;;;;;;;;;5516343;25;20310;-75
2024/04/24 10:45:26;;;;;;;3.30;0.90;;;;;;;;;;5475393;25;20325;-74
2024/04/24 10:47:52;;;;;;;7.43;1.35;;;;;;;;;;5518591;25;20639;-74
2024/04/24 10:50:21;;;;;;;3.45;1.05;;;;;;;;;;5498389;25;20262;-76
2024/04/24 10:52:48;;;;;;;2.22;0.70;;;;;;;;;;5517432;25;20243;-72
2024/04/24 10:55:19;;;;;;;4.78;0.77;;;;;;;;;;5517498;25;20236;-73
2024/04/24 10:57:51;;;;;;;1.80;0.50;;;;;;;;;;5516302;25;20352;-73
2024/04/24 11:00:18;;;;;;;5.93;0.60;;;;;;;;;;5511039;25;20703;-73
2024/04/24 11:02:46;;;;;;;3.50;1.00;;;;;;;;;;5484496;26;20266;-73
2024/04/24 11:05:13;;;;;;;5.47;0.80;;;;;;;;;;5516505;25;20247;-73
2024/04/24 11:07:39;;;;;;;3.83;0.73;;;;;;;;;;5508804;26;22084;-70
2024/04/24 11:10:07;;;;;;;1.00;0.40;;;;;;;;;;5513444;25;20277;-70
2024/04/24 11:12:40;;;;;;;0.95;0.40;;;;;;;;;;5509594;26;20277;-71
2024/04/24 11:15:07;;;;;;;3.53;0.50;;;;;;;;;;5500612;26;20932;-74
2024/04/24 11:17:32;;;;;;;1.52;0.47;;;;;;;;;;5513740;25;20232;-74
2024/04/24 11:19:58;;;;;;;0.73;0.20;;;;;;;;;;4746756;25;10000674;-74
2024/04/24 11:22:27;;;;;;;9.73;2.22;;;;;;;;;;5496467;25;20610;-74
2024/04/24 11:24:55;;;;;;;2.00;0.45;;;;;;;;;;5511864;25;20277;-74
2024/04/24 11:27:29;;;;;;;3.97;0.50;;;;;;;;;;5489583;26;20334;-74
2024/04/24 11:29:54;;;;;;;2.10;0.40;;;;;;;;;;5512626;25;20266;-73
2024/04/24 11:32:22;;;;;;;2.20;0.60;;;;;;;;;;5470953;26;20247;-74
2024/04/24 11:34:49;;;;;;;3.28;0.82;;;;;;;;;;5513400;25;20727;-76
2024/04/24 11:37:15;;;;;;;4.00;0.70;;;;;;;;;;5510410;25;21174;-76
2024/04/24 11:39:40;;;;;;;4.90;0.85;;;;;;;;;;5497635;25;20240;-74
2024/04/24 11:42:06;;;;;;;5.20;1.10;;;;;;;;;;5510844;25;20247;-74
2024/04/24 11:44:33;;;;;;;4.80;1.13;;;;;;;;;;5510881;25;20232;-75
2024/04/24 11:46:58;;;;;;;6.45;0.93;;;;;;;;;;5474421;26;20621;-74
2024/04/24 11:49:24;;;;;;;1.50;0.63;;;;;;;;;;5502043;26;20231;-74
2024/04/24 11:51:52;;;;;;;4.55;0.70;;;;;;;;;;5494662;25;20246;-74
2024/04/24 11:54:17;;;;;;;4.70;0.65;;;;;;;;;;5509134;26;20235;-74
2024/04/24 11:56:45;;;;;;;1.63;0.68;;;;;;;;;;5503424;26;20312;-75
2024/04/24 11:59:14;;;;;;;2.30;0.60;;;;;;;;;;5510627;26;20578;-74
2024/04/24 12:01:39;;;;;;;3.22;0.60;;;;;;;;;;5540013;25;20318;-75
2024/04/24 12:04:06;;;;;;;4.22;0.70;;;;;;;;;;5467329;25;20597;-74
2024/04/24 12:06:42;;;;;;;2.95;0.80;;;;;;;;;;5513065;25;20348;-73
2024/04/24 12:09:11;;;;;;;3.47;0.85;;;;;;;;;;5517733;25;20239;-71
2024/04/24 12:11:38;;;;;;;3.20;0.65;;;;;;;;;;5537083;25;20274;-76
2024/04/24 12:14:04;;;;;;;4.45;0.70;;;;;;;;;;5511228;25;20306;-74
2024/04/24 12:16:30;;;;;;;2.72;0.30;;;;;;;;;;5517543;25;20409;-73
2024/04/24 12:18:55;;;;;;;4.05;0.40;;;;;;;;;;5516853;25;20255;-73
2024/04/24 12:21:21;;;;;;;1.38;0.40;;;;;;;;;;5508969;25;20608;-73
2024/04/24 12:23:46;;;;;;;1.58;0.60;;;;;;;;;;5503757;26;20244;-73
2024/04/24 12:26:11;;;;;;;5.57;0.80;;;;;;;;;;5492790;25;20244;-73
2024/04/24 12:28:37;;;;;;;3.47;0.55;;;;;;;;;;5498810;25;20459;-75
2024/04/24 12:31:03;;;;;;;3.65;0.73;;;;;;;;;;5509030;25;20233;-74
2024/04/24 12:33:28;;;;;;;6.30;1.80;;;;;;;;;;5513842;25;20288;-73
2024/04/24 12:35:53;;;;;;;2.80;0.77;;;;;;;;;;5509094;25;20333;-74
2024/04/24 12:38:19;;;;;;;4.38;1.15;;;;;;;;;;5477553;26;20255;-72
2024/04/24 12:40:44;;;;;;;3.08;0.73;;;;;;;;;;5511375;25;20228;-74
2024/04/24 12:43:11;;;;;;;6.38;0.80;;;;;;;;;;5530058;25;20660;-72
2024/04/24 12:45:36;;;;;;;3.05;0.75;;;;;;;;;;5514957;25;20307;-74
2024/04/24 12:48:02;;;;;;;2.58;0.45;;;;;;;;;;5519809;25;20694;-73
2024/04/24 12:50:28;;;;;;;1.98;0.50;;;;;;;;;;5519374;25;20232;-73
2024/04/24 12:52:53;;;;;;;3.58;0.68;;;;;;;;;;5514993;25;20493;-73
2024/04/24 12:55:18;;;;;;;3.28;0.47;;;;;;;;;;5516560;25;20227;-72
2024/04/24 12:57:44;;;;;;;1.95;0.50;;;;;;;;;;5519187;25;20355;-73
2024/04/24 13:00:09;;;;;;;2.95;0.60;;;;;;;;;;5508031;25;20227;-72
2024/04/24 13:02:37;;;;;;;1.33;0.40;;;;;;;;;;5529160;25;20265;-75
2024/04/24 13:05:06;;;;;;;3.20;0.30;;;;;;;;;;5528042;25;20342;-73
2024/04/24 13:07:32;;;;;;;0.73;0.20;;;;;;;;;;5479449;26;21089;-73
2024/04/24 13:09:57;;;;;;;5.43;0.35;;;;;;;;;;5495330;26;20335;-74
2024/04/24 13:12:23;;;;;;;2.58;0.40;;;;;;;;;;5513177;25;20263;-74
2024/04/24 13:14:48;;;;;;;3.28;0.30;;;;;;;;;;5523190;25;20714;-75
2024/04/24 13:17:16;;;;;;;5.20;0.50;;;;;;;;;;5522104;25;20255;-73
2024/04/24 13:19:42;;;;;;;1.48;0.45;;;;;;;;;;5502624;25;20231;-72
2024/04/24 13:22:07;;;;;;;4.35;0.77;;;;;;;;;;5519812;25;20382;-75
2024/04/24 13:24:33;;;;;;;1.40;0.40;;;;;;;;;;5501626;25;20266;-74
2024/04/24 13:26:58;;;;;;;0.65;0.20;;;;;;;;;;5488457;25;20241;-74
2024/04/24 13:29:24;;;;;;;2.17;0.30;;;;;;;;;;5500397;25;20282;-71
2024/04/24 13:31:50;;;;;;;0.52;0.20;;;;;;;;;;5497252;26;20243;-74
2024/04/24 13:34:16;;;;;;;1.95;0.40;;;;;;;;;;5525865;25;20342;-72
2024/04/24 13:36:41;;;;;;;1.05;0.30;;;;;;;;;;5510662;25;20259;-73
2024/04/24 13:39:07;;;;;;;1.20;0.30;;;;;;;;;;5477142;26;20330;-72
2024/04/24 13:41:32;;;;;;;2.45;0.38;;;;;;;;;;5508223;25;20335;-75
2024/04/24 13:43:58;;;;;;;2.25;0.25;;;;;;;;;;5514063;25;20239;-76
2024/04/24 13:46:23;;;;;;;0.50;0.40;;;;;;;;;;5518684;25;20754;-76
2024/04/24 13:48:49;;;;;;;1.63;0.30;;;;;;;;;;5520529;25;20604;-73
2024/04/24 13:51:14;;;;;;;1.67;0.30;;;;;;;;;;5512011;25;20286;-75
2024/04/24 13:53:40;;;;;;;1.88;0.43;;;;;;;;;;5517561;25;20299;-74
2024/04/24 13:56:05;;;;;;;1.98;0.47;;;;;;;;;;5532185;25;20258;-76
2024/04/24 13:58:31;;;;;;;5.17;0.70;;;;;;;;;;5487450;26;20251;-74
2024/04/24 14:00:57;;;;;;;0.60;0.30;;;;;;;;;;5520983;25;20679;-73
2024/04/24 14:03:22;;;;;;;1.55;0.50;;;;;;;;;;5486551;25;20265;-74
2024/04/24 14:05:52;;;;;;;1.55;0.50;;;;;;;;;;5508254;26;20248;-74
2024/04/24 14:08:18;;;;;;;2.50;0.35;;;;;;;;;;5518953;25;20815;-73
2024/04/24 14:10:43;;;;;;;4.18;0.50;;;;;;;;;;5503157;26;20232;-75
2024/04/24 14:13:09;;;;;;;3.28;0.70;;;;;;;;;;5518549;26;20471;-75
2024/04/24 14:15:34;;;;;;;1.80;1.10;;;;;;;;;;5485018;26;20711;-75
2024/04/24 14:18:00;;;;;;;3.50;1.02;;;;;;;;;;5519208;26;20380;-73
2024/04/24 14:20:26;;;;;;;2.72;1.00;;;;;;;;;;5478771;26;20348;-74
2024/04/24 14:22:52;;;;;;;4.20;1.15;;;;;;;;;;5518887;25;20251;-75
2024/04/24 14:25:18;;;;;;;3.33;0.93;;;;;;;;;;5517106;25;20282;-74
2024/04/24 14:27:48;;;;;;;2.88;0.70;;;;;;;;;;5518577;25;20593;-74
2024/04/24 14:30:14;;;;;;;5.22;0.77;;;;;;;;;;5484462;26;20700;-74
2024/04/24 14:32:39;;;;;;;1.27;0.65;;;;;;;;;;5516381;25;20719;-74
2024/04/24 14:35:05;;;;;;;4.22;0.95;;;;;;;;;;5519171;25;20244;-74
2024/04/24 14:37:32;;;;;;;5.28;1.00;;;;;;;;;;5498495;25;20243;-75
2024/04/24 14:39:57;;;;;;;5.97;1.30;;;;;;;;;;5516022;26;20261;-74